Groom Creek, Arizona
Current Conditions -  °F | °C
As of 3:53 PM on Friday 31 Oct 2014 (Local Time) from KPRC Reporting Station
Clear Clear  
Wind Chill: 74°   Ceiling: Unl
Heat Index: 74°   Visibility: 10mi
Dew Point: 34°   Wind: 15mph
Humidity: 23%   Direction: 160°SSE
Pressure: 30.01"   Gusts: 22mph
Location:  34.5368°N, 112.512°W
Report Text: KPRC 312253Z 16013G19KT 10SM CLR 23/01 A3001 RMK AO2 SLP099 T02330011
Loading
Personal Weather Stations






























Interactive Weather Map New forecast layout! Learn more

10-Day Weather Forecast

Advertisements
Track Severe Weather on mobile